Airport View

Enter AWOS ICAO identifier for current METAR.

ex. KFNL

KSUN 210047Z 13005KT 10SM -RA SCT018 BKN032 OVC046 09/07 A3003

21 Sep 2019 01:26

Frequency: 128.225

Phone: 208-788-9213

Other Area AWOS: KJER - KSNT - KLLJ - KTWF

TAF KSUN 202336Z 2100/2206 14008KT P6SM VCSH SCT020 OVC060 FM210100 25009KT P6SM VCSH SCT025 OVC060 FM210300 31006KT P6SM FEW040 SCT070 FM211700 15009KT P6SM SCT050 FM220300 31006KT P6SM SCT050 AMD LTD TO CLD VIS AND WIND 2105/2113